createdAt,value
2023-02-19T00:01:49.933Z,101199.09
2023-02-19T00:04:19.310Z,101198.78
2023-02-19T00:06:47.689Z,101198.47
2023-02-19T00:09:17.304Z,101200.44
2023-02-19T00:11:47.519Z,101203.44
2023-02-19T00:14:17.447Z,101202.59
2023-02-19T00:16:45.059Z,101204.47
2023-02-19T00:19:14.562Z,101205.13
2023-02-19T00:21:42.297Z,101196.31
2023-02-19T00:24:12.948Z,101191.16
2023-02-19T00:26:41.358Z,101186.25
2023-02-19T00:29:13.144Z,101198.00
2023-02-19T00:31:41.082Z,101195.50
2023-02-19T00:34:09.842Z,101196.00
2023-02-19T00:36:39.406Z,101193.53
2023-02-19T00:39:08.238Z,101198.19
2023-02-19T00:41:36.138Z,101200.47
2023-02-19T00:44:05.992Z,101207.09
2023-02-19T00:46:36.479Z,101200.47
2023-02-19T00:49:05.076Z,101200.63
2023-02-19T00:51:34.803Z,101209.19
2023-02-19T00:54:02.745Z,101210.00
2023-02-19T00:56:30.543Z,101216.63
2023-02-19T00:58:58.532Z,101211.47
2023-02-19T01:01:26.137Z,101212.97
2023-02-19T01:03:55.066Z,101212.63
2023-02-19T01:06:23.108Z,101213.94
2023-02-19T01:08:51.008Z,101212.28
2023-02-19T01:11:20.210Z,101217.22
2023-02-19T01:13:47.794Z,101225.03
2023-02-19T01:16:18.160Z,101220.91
2023-02-19T01:18:46.333Z,101225.38
2023-02-19T01:21:18.996Z,101226.91
2023-02-19T01:23:47.857Z,101227.88
2023-02-19T01:26:17.369Z,101232.97
2023-02-19T01:28:45.570Z,101228.84
2023-02-19T01:31:15.086Z,101224.06
2023-02-19T01:33:45.952Z,101232.50
2023-02-19T01:36:15.374Z,101232.31
2023-02-19T01:38:43.725Z,101225.22
2023-02-19T01:41:13.929Z,101226.53
2023-02-19T01:44:00.827Z,101222.28
2023-02-19T01:46:29.563Z,101224.09
2023-02-19T01:49:00.179Z,101219.28
2023-02-19T01:51:31.706Z,101222.94
2023-02-19T01:54:03.556Z,101217.97
2023-02-19T01:56:33.025Z,101216.34
2023-02-19T01:59:02.262Z,101218.97
2023-02-19T02:01:29.879Z,101223.13
2023-02-19T02:03:57.591Z,101219.63
2023-02-19T02:06:28.730Z,101215.19
2023-02-19T02:09:16.394Z,101222.94
2023-02-19T02:11:48.714Z,101220.94
2023-02-19T02:14:18.307Z,101223.44
2023-02-19T02:16:55.617Z,101223.25
2023-02-19T02:19:44.197Z,101214.84
2023-02-19T02:22:19.108Z,101220.28
2023-02-19T02:25:33.057Z,101220.28
2023-02-19T02:28:17.985Z,101220.59
2023-02-19T02:30:49.680Z,101217.13
2023-02-19T02:33:27.068Z,101219.75
2023-02-19T02:35:59.237Z,101221.59
2023-02-19T02:38:30.967Z,101227.03
2023-02-19T02:40:59.111Z,101228.06
2023-02-19T02:43:27.001Z,101228.88
2023-02-19T02:45:56.663Z,101220.78
2023-02-19T02:48:36.678Z,101213.31
2023-02-19T02:51:10.853Z,101206.72
2023-02-19T02:54:07.774Z,101209.66
2023-02-19T02:56:36.057Z,101208.31
2023-02-19T02:59:08.585Z,101209.66
2023-02-19T03:02:01.538Z,101214.56
2023-02-19T03:04:34.592Z,101203.84
2023-02-19T03:07:08.798Z,101210.13
2023-02-19T03:09:43.061Z,101213.06
2023-02-19T03:12:32.878Z,101212.25
2023-02-19T03:15:25.938Z,101214.09
2023-02-19T03:18:17.279Z,101214.53
2023-02-19T03:20:49.269Z,101218.16
2023-02-19T03:23:19.132Z,101229.69
2023-02-19T03:26:05.721Z,101235.31
2023-02-19T03:29:11.948Z,101229.00
2023-02-19T03:31:44.660Z,101232.63
2023-02-19T03:34:20.001Z,101238.94
2023-02-19T03:36:54.753Z,101242.53
2023-02-19T03:39:24.678Z,101246.47
2023-02-19T03:41:59.147Z,101247.00
2023-02-19T03:44:35.916Z,101248.81
2023-02-19T03:47:08.216Z,101254.09
2023-02-19T03:49:48.858Z,101252.94
2023-02-19T03:52:23.330Z,101251.75
2023-02-19T03:54:57.593Z,101250.78
2023-02-19T03:57:32.460Z,101264.16
2023-02-19T04:00:06.763Z,101259.38
2023-02-19T04:02:44.544Z,101262.66
2023-02-19T04:05:17.582Z,101262.50
2023-02-19T04:07:48.702Z,101267.06
2023-02-19T04:10:21.177Z,101274.47
2023-02-19T04:12:57.537Z,101277.41
2023-02-19T04:15:30.214Z,101276.81
2023-02-19T04:18:01.472Z,101277.94
2023-02-19T04:20:35.008Z,101274.63
2023-02-19T04:23:02.573Z,101270.19
2023-02-19T04:25:31.409Z,101278.03
2023-02-19T04:27:59.581Z,101291.28
2023-02-19T04:30:27.423Z,101301.03
2023-02-19T04:32:55.102Z,101311.69
2023-02-19T04:35:22.665Z,101306.84
2023-02-19T04:37:51.704Z,101314.56
2023-02-19T04:40:19.571Z,101315.28
2023-02-19T04:42:47.078Z,101318.09
2023-02-19T04:45:14.574Z,101325.91
2023-02-19T04:47:42.096Z,101318.53
2023-02-19T04:50:09.740Z,101327.47
2023-02-19T04:52:37.365Z,101325.25
2023-02-19T04:55:07.316Z,101329.69
2023-02-19T04:57:35.563Z,101334.13
2023-02-19T05:00:04.154Z,101339.00
2023-02-19T05:02:31.710Z,101348.59
2023-02-19T05:04:59.276Z,101334.13
2023-02-19T05:07:26.916Z,101337.09
2023-02-19T05:09:54.456Z,101340.84
2023-02-19T05:12:23.305Z,101338.66
2023-02-19T05:14:50.809Z,101339.81
2023-02-19T05:17:18.310Z,101351.25
2023-02-19T05:19:45.866Z,101352.22
2023-02-19T05:22:13.377Z,101354.25
2023-02-19T05:24:40.862Z,101355.84
2023-02-19T05:27:08.459Z,101362.63
2023-02-19T05:29:37.376Z,101370.09
2023-02-19T05:32:04.947Z,101369.44
2023-02-19T05:34:32.556Z,101364.81
2023-02-19T05:37:00.097Z,101375.97
2023-02-19T05:39:27.827Z,101382.97
2023-02-19T05:41:55.347Z,101391.03
2023-02-19T05:44:22.917Z,101383.81
2023-02-19T05:46:51.739Z,101386.84
2023-02-19T05:49:19.590Z,101393.81
2023-02-19T05:51:50.195Z,101393.44
2023-02-19T05:54:17.753Z,101395.53
2023-02-19T05:56:45.327Z,101398.31
2023-02-19T05:59:17.036Z,101401.81
2023-02-19T06:01:45.645Z,101401.56
2023-02-19T06:04:15.479Z,101412.94
2023-02-19T06:06:43.505Z,101418.91
2023-02-19T06:09:11.770Z,101426.53
2023-02-19T06:11:39.879Z,101430.19
2023-02-19T06:14:07.912Z,101434.47
2023-02-19T06:16:35.477Z,101441.31
2023-02-19T06:19:04.344Z,101442.53
2023-02-19T06:21:33.216Z,101443.78
2023-02-19T06:24:05.586Z,101445.59
2023-02-19T06:26:33.143Z,101457.94
2023-02-19T06:29:00.775Z,101464.88
2023-02-19T06:31:28.532Z,101471.97
2023-02-19T06:33:56.146Z,101479.59
2023-02-19T06:36:24.518Z,101479.88
2023-02-19T06:38:53.407Z,101484.72
2023-02-19T06:41:20.952Z,101494.59
2023-02-19T06:43:48.514Z,101505.03
2023-02-19T06:46:16.175Z,101506.09
2023-02-19T06:48:45.797Z,101511.53
2023-02-19T06:51:14.053Z,101519.19
2023-02-19T06:53:41.641Z,101513.91
2023-02-19T06:56:24.583Z,101517.22
2023-02-19T06:58:52.964Z,101520.00
2023-02-19T07:01:20.582Z,101527.66
2023-02-19T07:03:48.303Z,101528.91
2023-02-19T07:06:16.004Z,101530.28
2023-02-19T07:08:43.542Z,101540.84
2023-02-19T07:11:12.663Z,101544.72
2023-02-19T07:13:40.332Z,101547.53
2023-02-19T07:16:10.879Z,101559.59
2023-02-19T07:18:39.629Z,101562.38
2023-02-19T07:21:09.093Z,101576.09
2023-02-19T07:23:36.974Z,101577.50
2023-02-19T07:26:04.897Z,101580.28
2023-02-19T07:28:33.747Z,101583.88
2023-02-19T07:31:02.271Z,101582.75
2023-02-19T07:33:30.063Z,101593.59
2023-02-19T07:35:58.180Z,101591.41
2023-02-19T07:38:27.328Z,101598.88
2023-02-19T07:40:56.229Z,101602.75
2023-02-19T07:43:24.549Z,101602.09
2023-02-19T07:45:55.122Z,101604.16
2023-02-19T07:48:22.792Z,101611.09
2023-02-19T07:50:53.765Z,101624.84
2023-02-19T07:53:22.581Z,101623.03
2023-02-19T07:55:50.528Z,101621.81
2023-02-19T07:58:18.559Z,101628.63
2023-02-19T08:00:46.404Z,101636.13
2023-02-19T08:03:14.326Z,101641.97
2023-02-19T08:05:43.392Z,101653.63
2023-02-19T08:08:13.400Z,101648.34
2023-02-19T08:10:59.231Z,101641.13
2023-02-19T08:13:28.368Z,101646.41
2023-02-19T08:16:10.844Z,101646.53
2023-02-19T08:18:45.457Z,101640.25
2023-02-19T08:21:13.314Z,101643.84
2023-02-19T08:23:41.384Z,101646.34
2023-02-19T08:26:09.788Z,101650.34
2023-02-19T08:28:37.458Z,101638.50
2023-02-19T08:31:07.640Z,101644.06
2023-02-19T08:33:36.079Z,101642.09
2023-02-19T08:36:07.397Z,101648.50
2023-02-19T08:38:36.365Z,101658.75
2023-02-19T08:41:06.276Z,101672.09
2023-02-19T08:43:34.074Z,101679.28
2023-02-19T08:46:02.112Z,101674.25
2023-02-19T08:48:29.930Z,101682.72
2023-02-19T08:50:58.307Z,101687.81
2023-02-19T08:53:27.728Z,101699.44
2023-02-19T08:55:55.250Z,101695.84
2023-02-19T08:58:23.966Z,101701.22
2023-02-19T09:00:51.530Z,101715.81
2023-02-19T09:03:19.203Z,101711.31
2023-02-19T09:05:47.926Z,101716.00
2023-02-19T09:08:15.794Z,101727.25
2023-02-19T09:10:44.655Z,101733.75
2023-02-19T09:13:12.187Z,101743.34
2023-02-19T09:15:39.998Z,101742.50
2023-02-19T09:18:07.571Z,101749.25
2023-02-19T09:20:35.125Z,101749.81
2023-02-19T09:23:02.629Z,101745.28
2023-02-19T09:25:30.154Z,101746.03
2023-02-19T09:27:59.040Z,101747.03
2023-02-19T09:30:26.622Z,101745.41
2023-02-19T09:32:54.154Z,101757.31
2023-02-19T09:35:21.689Z,101759.88
2023-02-19T09:37:49.246Z,101763.53
2023-02-19T09:40:21.460Z,101771.00
2023-02-19T09:42:51.319Z,101768.50
2023-02-19T09:45:25.014Z,101767.78
2023-02-19T09:47:55.918Z,101760.25
2023-02-19T09:50:29.620Z,101761.44
2023-02-19T09:52:59.568Z,101766.03
2023-02-19T09:55:32.327Z,101776.53
2023-02-19T09:58:03.204Z,101785.47
2023-02-19T10:00:35.350Z,101795.88
2023-02-19T10:03:06.275Z,101811.81
2023-02-19T10:05:35.006Z,101815.47
2023-02-19T10:08:07.035Z,101814.94
2023-02-19T10:10:37.042Z,101818.88
2023-02-19T10:13:18.978Z,101819.03
2023-02-19T10:15:50.837Z,101826.72
2023-02-19T10:18:21.530Z,101825.56
2023-02-19T10:20:50.641Z,101840.75
2023-02-19T10:23:18.808Z,101855.72
2023-02-19T10:25:50.021Z,101850.00
2023-02-19T10:28:20.133Z,101857.28
2023-02-19T10:30:53.837Z,101849.63
2023-02-19T10:33:22.046Z,101853.13
2023-02-19T10:35:56.131Z,101843.16
2023-02-19T10:38:28.088Z,101838.91
2023-02-19T10:41:03.169Z,101848.06
2023-02-19T10:43:33.979Z,101857.53
2023-02-19T10:46:07.377Z,101855.72
2023-02-19T10:48:38.433Z,101850.78
2023-02-19T10:51:09.724Z,101855.31
2023-02-19T10:53:42.672Z,101869.66
2023-02-19T10:56:14.140Z,101878.16
2023-02-19T10:58:44.621Z,101875.06
2023-02-19T11:01:20.403Z,101877.44
2023-02-19T11:03:49.672Z,101886.78
2023-02-19T11:06:20.143Z,101884.69
2023-02-19T11:08:54.895Z,101883.38
2023-02-19T11:11:25.574Z,101885.66
2023-02-19T11:13:54.450Z,101881.56
2023-02-19T11:16:23.928Z,101881.72
2023-02-19T11:18:57.369Z,101883.75
2023-02-19T11:21:32.759Z,101891.13
2023-02-19T11:24:01.443Z,101870.53
2023-02-19T11:26:35.053Z,101891.00
2023-02-19T11:29:13.769Z,101885.56
2023-02-19T11:31:42.705Z,101897.88
2023-02-19T11:34:29.812Z,101895.16
2023-02-19T11:37:11.911Z,101890.31
2023-02-19T11:39:43.034Z,101900.00
2023-02-19T11:42:33.181Z,101896.16
2023-02-19T11:45:25.441Z,101904.50
2023-02-19T11:48:13.308Z,101889.06
2023-02-19T11:50:51.872Z,101898.88
2023-02-19T11:53:26.265Z,101900.72
2023-02-19T11:56:08.970Z,101912.69
2023-02-19T11:59:01.382Z,101899.22
2023-02-19T12:01:57.133Z,101902.19
2023-02-19T12:04:57.368Z,101895.22
2023-02-19T12:07:41.287Z,101897.72
2023-02-19T12:10:18.184Z,101898.84
2023-02-19T12:12:57.752Z,101890.88
2023-02-19T12:15:33.622Z,101905.16
2023-02-19T12:18:21.250Z,101904.69
2023-02-19T12:21:04.545Z,101905.19
2023-02-19T12:23:47.036Z,101910.19
2023-02-19T12:26:23.855Z,101916.84
2023-02-19T12:29:14.098Z,101914.34
2023-02-19T12:32:16.800Z,101922.16
2023-02-19T12:35:11.910Z,101923.34
2023-02-19T12:37:49.743Z,101919.47
2023-02-19T12:40:29.341Z,101913.84
2023-02-19T12:43:09.094Z,101917.81
2023-02-19T12:45:42.284Z,101917.31
2023-02-19T12:48:18.505Z,101918.28
2023-02-19T12:50:50.317Z,101917.59
2023-02-19T12:53:30.005Z,101917.06
2023-02-19T12:55:58.618Z,101914.47
2023-02-19T12:58:33.036Z,101901.50
2023-02-19T13:01:01.246Z,101905.81
2023-02-19T13:03:33.316Z,101907.38
2023-02-19T13:06:09.426Z,101897.66
2023-02-19T13:09:03.571Z,101899.66
2023-02-19T13:11:36.559Z,101895.50
2023-02-19T13:14:10.495Z,101887.50
2023-02-19T13:16:43.087Z,101890.19
2023-02-19T13:19:11.518Z,101897.00
2023-02-19T13:22:08.798Z,101902.38
2023-02-19T13:24:41.795Z,101888.22
2023-02-19T13:27:29.790Z,101907.84
2023-02-19T13:30:09.090Z,101893.91
2023-02-19T13:32:54.042Z,101908.53
2023-02-19T13:35:36.500Z,101902.16
2023-02-19T13:40:43.722Z,101897.69
2023-02-19T13:43:26.561Z,101901.00
2023-02-19T13:45:58.747Z,101901.19
2023-02-19T13:48:29.530Z,101898.34
2023-02-19T13:51:30.336Z,101905.81
2023-02-19T13:54:01.859Z,101908.66
2023-02-19T13:56:41.513Z,101903.81
2023-02-19T13:59:37.125Z,101906.84
2023-02-19T14:02:13.389Z,101904.38
2023-02-19T14:04:51.653Z,101912.84
2023-02-19T14:08:00.561Z,101913.00
2023-02-19T14:11:02.141Z,101930.78
2023-02-19T14:14:10.967Z,101924.75
2023-02-19T14:17:01.108Z,101934.34
2023-02-19T14:19:47.652Z,101918.56
2023-02-19T14:23:04.000Z,101922.34
2023-02-19T14:25:52.003Z,101921.44
2023-02-19T14:28:33.468Z,101926.91
2023-02-19T14:31:04.401Z,101917.81
2023-02-19T14:33:34.992Z,101911.69
2023-02-19T14:36:06.637Z,101912.50
2023-02-19T14:38:39.333Z,101910.53
2023-02-19T14:41:08.714Z,101902.03
2023-02-19T14:43:38.364Z,101899.19
2023-02-19T14:46:13.785Z,101900.19
2023-02-19T14:48:46.125Z,101887.88
2023-02-19T14:51:17.865Z,101887.84
2023-02-19T14:53:46.441Z,101886.84
2023-02-19T14:56:22.319Z,101883.53
2023-02-19T14:59:08.944Z,101891.00
2023-02-19T15:01:36.763Z,101896.16
2023-02-19T15:04:06.554Z,101889.53
2023-02-19T15:06:36.563Z,101899.13
2023-02-19T15:09:07.557Z,101898.28
2023-02-19T15:11:36.286Z,101902.97
2023-02-19T15:14:06.494Z,101899.00
2023-02-19T15:16:36.544Z,101900.50
2023-02-19T15:19:08.793Z,101893.34
2023-02-19T15:21:39.940Z,101900.50
2023-02-19T15:24:08.243Z,101907.78
2023-02-19T15:26:37.747Z,101895.94
2023-02-19T15:29:11.734Z,101891.31
2023-02-19T15:31:45.860Z,101891.97
2023-02-19T15:34:19.874Z,101898.63
2023-02-19T15:36:48.355Z,101903.91
2023-02-19T15:39:21.624Z,101916.97
2023-02-19T15:42:00.299Z,101908.94
2023-02-19T15:44:35.017Z,101912.59
2023-02-19T15:47:09.645Z,101913.56
2023-02-19T15:49:45.429Z,101917.16
2023-02-19T15:52:22.222Z,101922.94
2023-02-19T15:54:56.207Z,101930.16
2023-02-19T15:57:31.094Z,101932.84
2023-02-19T16:00:03.819Z,101935.56
2023-02-19T16:02:41.073Z,101931.94
2023-02-19T16:05:15.923Z,101934.19
2023-02-19T16:07:43.898Z,101932.56
2023-02-19T16:10:21.757Z,101932.56
2023-02-19T16:12:59.775Z,101933.47
2023-02-19T16:15:28.861Z,101933.47
2023-02-19T16:17:57.567Z,101938.03
2023-02-19T16:20:28.995Z,101937.34
2023-02-19T16:23:00.728Z,101936.22
2023-02-19T16:25:34.431Z,101937.88
2023-02-19T16:28:11.600Z,101943.91
2023-02-19T16:30:39.774Z,101947.66
2023-02-19T16:33:34.701Z,101943.50
2023-02-19T16:39:19.452Z,101934.81
2023-02-19T16:42:17.573Z,101933.19
2023-02-19T16:44:46.049Z,101936.28
2023-02-19T16:47:28.604Z,101941.59
2023-02-19T16:49:56.629Z,101941.03
2023-02-19T16:52:24.167Z,101943.63
2023-02-19T16:54:53.089Z,101941.13
2023-02-19T16:57:21.434Z,101947.25
2023-02-19T16:59:49.064Z,101937.25
2023-02-19T17:02:22.113Z,101942.84
2023-02-19T17:04:51.741Z,101944.53
2023-02-19T17:07:19.588Z,101952.66
2023-02-19T17:09:47.418Z,101938.19
2023-02-19T17:12:17.587Z,101945.97
2023-02-19T17:14:45.737Z,101940.88
2023-02-19T17:17:13.329Z,101943.06
2023-02-19T17:19:40.841Z,101934.06
2023-02-19T17:22:08.751Z,101937.03
2023-02-19T17:24:36.262Z,101934.66
2023-02-19T17:27:03.837Z,101938.84
2023-02-19T17:29:33.872Z,101951.25
2023-02-19T17:32:01.839Z,101949.28
2023-02-19T17:34:29.485Z,101951.94
2023-02-19T17:36:57.552Z,101947.47
2023-02-19T17:39:25.348Z,101944.97
2023-02-19T17:41:52.851Z,101951.94
2023-02-19T17:44:20.409Z,101950.03
2023-02-19T17:46:49.347Z,101944.72
2023-02-19T17:49:16.917Z,101957.22
2023-02-19T17:51:44.453Z,101970.34
2023-02-19T17:54:12.035Z,101973.72
2023-02-19T17:56:43.097Z,101968.44
2023-02-19T17:59:11.372Z,101968.44
2023-02-19T18:01:39.070Z,101972.38
2023-02-19T18:04:08.382Z,101975.28
2023-02-19T18:06:35.956Z,101972.94
2023-02-19T18:09:03.504Z,101967.63
2023-02-19T18:11:31.128Z,101975.41
2023-02-19T18:13:59.498Z,101970.13
2023-02-19T18:16:27.026Z,101982.16
2023-02-19T18:18:54.950Z,101978.66
2023-02-19T18:21:24.702Z,101977.13
2023-02-19T18:23:52.252Z,101978.53
2023-02-19T18:26:21.090Z,101989.44
2023-02-19T18:28:48.649Z,101977.38
2023-02-19T18:31:16.396Z,101976.56
2023-02-19T18:33:44.106Z,101973.50
2023-02-19T18:36:12.434Z,101972.50
2023-02-19T18:38:42.058Z,101955.75
2023-02-19T18:41:19.550Z,101961.78
2023-02-19T18:43:47.879Z,101963.72
2023-02-19T18:46:15.765Z,101952.13
2023-02-19T18:48:43.340Z,101956.38
2023-02-19T18:51:11.903Z,101953.91
2023-02-19T18:53:42.924Z,101949.28
2023-02-19T18:56:10.462Z,101950.56
2023-02-19T18:58:38.020Z,101944.97
2023-02-19T19:01:05.898Z,101953.91
2023-02-19T19:03:33.626Z,101949.97
2023-02-19T19:06:01.214Z,101946.03
2023-02-19T19:08:30.678Z,101948.44
2023-02-19T19:10:59.681Z,101940.72
2023-02-19T19:13:27.242Z,101932.09
2023-02-19T19:15:54.763Z,101931.84
2023-02-19T19:18:22.537Z,101937.69
2023-02-19T19:20:50.092Z,101926.41
2023-02-19T19:23:17.609Z,101921.84
2023-02-19T19:25:45.202Z,101917.97
2023-02-19T19:28:14.114Z,101924.41
2023-02-19T19:30:42.291Z,101920.06
2023-02-19T19:33:09.880Z,101916.50
2023-02-19T19:35:37.579Z,101924.53
2023-02-19T19:38:05.168Z,101921.22
2023-02-19T19:40:32.721Z,101916.06
2023-02-19T19:43:00.215Z,101915.25
2023-02-19T19:45:29.113Z,101922.56
2023-02-19T19:47:56.699Z,101926.50
2023-02-19T19:50:24.238Z,101920.41
2023-02-19T19:52:52.164Z,101912.03
2023-02-19T19:55:21.340Z,101920.81
2023-02-19T19:57:49.454Z,101930.75
2023-02-19T20:00:19.029Z,101936.63
2023-02-19T20:02:47.957Z,101933.97
2023-02-19T20:05:16.762Z,101931.88
2023-02-19T20:07:44.485Z,101932.97
2023-02-19T20:10:12.963Z,101934.94
2023-02-19T20:12:40.747Z,101923.28
2023-02-19T20:15:09.477Z,101915.56
2023-02-19T20:17:37.580Z,101911.84
2023-02-19T20:20:07.847Z,101915.72
2023-02-19T20:22:36.382Z,101908.44
2023-02-19T20:25:04.026Z,101908.84
2023-02-19T20:27:31.600Z,101902.03
2023-02-19T20:29:59.167Z,101900.91
2023-02-19T20:32:26.728Z,101906.94
2023-02-19T20:34:54.564Z,101898.81
2023-02-19T20:37:23.572Z,101899.53
2023-02-19T20:39:51.236Z,101906.91
2023-02-19T20:42:19.297Z,101899.84
2023-02-19T20:44:46.932Z,101897.31
2023-02-19T20:47:14.486Z,101900.97
2023-02-19T20:49:45.473Z,101893.00
2023-02-19T20:52:15.488Z,101890.19
2023-02-19T20:54:44.842Z,101888.00
2023-02-19T20:57:13.659Z,101895.13
2023-02-19T20:59:41.531Z,101893.34
2023-02-19T21:02:14.802Z,101894.72
2023-02-19T21:04:42.434Z,101883.00
2023-02-19T21:07:09.992Z,101875.34
2023-02-19T21:09:37.564Z,101875.59
2023-02-19T21:12:06.882Z,101871.94
2023-02-19T21:14:34.565Z,101870.00
2023-02-19T21:17:02.202Z,101870.81
2023-02-19T21:19:29.798Z,101877.53
2023-02-19T21:21:57.367Z,101884.66
2023-02-19T21:24:25.080Z,101876.97
2023-02-19T21:26:52.697Z,101884.94
2023-02-19T21:29:22.690Z,101881.28
2023-02-19T21:31:54.882Z,101889.28
2023-02-19T21:34:24.541Z,101878.13
2023-02-19T21:36:52.202Z,101878.63
2023-02-19T21:39:21.824Z,101869.41
2023-02-19T21:41:49.839Z,101876.97
2023-02-19T21:44:18.053Z,101876.13
2023-02-19T21:46:46.977Z,101878.53
2023-02-19T21:49:14.525Z,101867.66
2023-02-19T21:51:44.121Z,101857.09
2023-02-19T21:54:16.473Z,101855.97
2023-02-19T21:56:44.153Z,101855.19
2023-02-19T21:59:11.877Z,101837.31
2023-02-19T22:01:40.300Z,101841.50
2023-02-19T22:04:10.615Z,101826.97
2023-02-19T22:06:39.106Z,101829.25
2023-02-19T22:09:07.089Z,101828.09
2023-02-19T22:11:34.846Z,101831.13
2023-02-19T22:14:02.721Z,101840.06
2023-02-19T22:16:30.298Z,101845.38
2023-02-19T22:18:59.630Z,101839.78
2023-02-19T22:21:32.302Z,101833.09
2023-02-19T22:24:00.350Z,101833.94
2023-02-19T22:26:30.819Z,101836.72
2023-02-19T22:28:59.517Z,101834.19
2023-02-19T22:31:28.460Z,101833.34
2023-02-19T22:33:57.362Z,101835.63
2023-02-19T22:36:27.672Z,101832.19
2023-02-19T22:38:56.562Z,101838.03
2023-02-19T22:41:24.636Z,101822.16
2023-02-19T22:43:55.650Z,101820.22
2023-02-19T22:46:25.784Z,101821.59
2023-02-19T22:48:53.448Z,101824.25
2023-02-19T22:51:23.514Z,101825.72
2023-02-19T22:53:52.841Z,101826.00
2023-02-19T22:56:24.312Z,101831.31
2023-02-19T22:58:51.971Z,101831.00
2023-02-19T23:01:20.421Z,101830.16
2023-02-19T23:03:50.079Z,101818.72
2023-02-19T23:06:19.005Z,101817.59
2023-02-19T23:08:46.595Z,101804.50
2023-02-19T23:11:14.758Z,101815.78
2023-02-19T23:13:43.819Z,101809.19
2023-02-19T23:16:12.094Z,101792.53
2023-02-19T23:18:39.788Z,101800.34
2023-02-19T23:21:07.499Z,101800.94
2023-02-19T23:23:35.027Z,101793.22
2023-02-19T23:26:03.314Z,101786.69
2023-02-19T23:28:30.878Z,101789.81
2023-02-19T23:30:59.966Z,101785.56
2023-02-19T23:33:29.397Z,101782.22
2023-02-19T23:35:57.107Z,101774.28
2023-02-19T23:38:24.729Z,101772.84
2023-02-19T23:40:52.320Z,101768.97
2023-02-19T23:43:20.950Z,101760.28
2023-02-19T23:45:48.551Z,101745.59
2023-02-19T23:48:17.698Z,101749.22
2023-02-19T23:50:45.262Z,101742.75
2023-02-19T23:53:12.826Z,101732.16
2023-02-19T23:55:40.378Z,101721.47
2023-02-19T23:58:07.939Z,101723.06
